地図

経路データ

SID SEASON NUMBER BASIN SUBBASIN NAME ISO_TIME NATURE LAT LON WMO_WIND WMO_PRES WMO_AGENCY TRACK_TYPE DIST2LAND LANDFALL IFLAG USA_AGENCY USA_ATCF_ID USA_LAT USA_LON USA_RECORD USA_STATUS USA_WIND USA_PRES USA_SSHS USA_R34_NE USA_R34_SE USA_R34_SW USA_R34_NW USA_R50_NE USA_R50_SE USA_R50_SW USA_R50_NW USA_R64_NE USA_R64_SE USA_R64_SW USA_R64_NW USA_POCI USA_ROCI USA_RMW USA_EYE TOKYO_LAT TOKYO_LON TOKYO_GRADE TOKYO_WIND TOKYO_PRES TOKYO_R50_DIR TOKYO_R50_LONG TOKYO_R50_SHORT TOKYO_R30_DIR TOKYO_R30_LONG TOKYO_R30_SHORT TOKYO_LAND CMA_LAT CMA_LON CMA_CAT CMA_WIND CMA_PRES HKO_LAT HKO_LON HKO_CAT HKO_WIND HKO_PRES NEWDELHI_LAT NEWDELHI_LON NEWDELHI_GRADE NEWDELHI_WIND NEWDELHI_PRES NEWDELHI_CI NEWDELHI_DP NEWDELHI_POCI REUNION_LAT REUNION_LON REUNION_TYPE REUNION_WIND REUNION_PRES REUNION_TNUM REUNION_CI REUNION_RMW REUNION_R34_NE REUNION_R34_SE REUNION_R34_SW REUNION_R34_NW REUNION_R50_NE REUNION_R50_SE REUNION_R50_SW REUNION_R50_NW REUNION_R64_NE REUNION_R64_SE REUNION_R64_SW REUNION_R64_NW BOM_LAT BOM_LON BOM_TYPE BOM_WIND BOM_PRES BOM_TNUM BOM_CI BOM_RMW BOM_R34_NE BOM_R34_SE BOM_R34_SW BOM_R34_NW BOM_R50_NE BOM_R50_SE BOM_R50_SW BOM_R50_NW BOM_R64_NE BOM_R64_SE BOM_R64_SW BOM_R64_NW BOM_ROCI BOM_POCI BOM_EYE BOM_POS_METHOD BOM_PRES_METHOD NADI_LAT NADI_LON NADI_CAT NADI_WIND NADI_PRES WELLINGTON_LAT WELLINGTON_LON WELLINGTON_WIND WELLINGTON_PRES DS824_LAT DS824_LON DS824_STAGE DS824_WIND DS824_PRES TD9636_LAT TD9636_LON TD9636_STAGE TD9636_WIND TD9636_PRES TD9635_LAT TD9635_LON TD9635_WIND TD9635_PRES TD9635_ROCI NEUMANN_LAT NEUMANN_LON NEUMANN_CLASS NEUMANN_WIND NEUMANN_PRES MLC_LAT MLC_LON MLC_CLASS MLC_WIND MLC_PRES USA_GUST BOM_GUST BOM_GUST_PER REUNION_GUST REUNION_GUST_PER USA_SEAHGT USA_SEARAD_NE USA_SEARAD_SE USA_SEARAD_SW USA_SEARAD_NW STORM_SPEED STORM_DIR
1990267N13252 1990 92 EP MM ODILE 1990-09-23 12:00:00 TS 12.5000 -108.500 25 1011 hurdat_epa main 841 841 O_____________ hurdat_epa EP191990 12.5000 -108.500 TD 25 1011 -1 12 288
1990267N13252 1990 92 EP MM ODILE 1990-09-23 15:00:00 TS 12.6803 -109.060 main 860 860 P_____________ EP191990 12.6803 -109.060 TD 27 1010 -1 11 286
1990267N13252 1990 92 EP MM ODILE 1990-09-23 18:00:00 TS 12.8000 -109.600 30 1009 hurdat_epa main 880 880 O_____________ hurdat_epa EP191990 12.8000 -109.600 TD 30 1009 -1 10 278
1990267N13252 1990 92 EP MM ODILE 1990-09-23 21:00:00 TS 12.8224 -110.108 main 913 913 P_____________ EP191990 12.8224 -110.108 TD 30 1007 -1 10 270
1990267N13252 1990 92 EP MM ODILE 1990-09-24 00:00:00 TS 12.8000 -110.600 30 1006 hurdat_epa main 947 947 O_____________ hurdat_epa EP191990 12.8000 -110.600 TD 30 1006 -1 10 268
1990267N13252 1990 92 EP MM ODILE 1990-09-24 03:00:00 TS 12.7849 -111.100 main 982 982 P_____________ EP191990 12.7849 -111.100 TD 35 1004 0 10 270
1990267N13252 1990 92 EP MM ODILE 1990-09-24 06:00:00 TS 12.8000 -111.600 40 1002 hurdat_epa main 1020 1020 O_____________ hurdat_epa EP191990 12.8000 -111.600 TS 40 1002 0 10 276
1990267N13252 1990 92 EP MM ODILE 1990-09-24 09:00:00 TS 12.8924 -112.100 main 1050 1050 P_____________ EP191990 12.8924 -112.100 TS 42 1000 0 10 282
1990267N13252 1990 92 EP MM ODILE 1990-09-24 12:00:00 TS 13.0000 -112.600 45 998 hurdat_epa main 1080 1080 O_____________ hurdat_epa EP191990 13.0000 -112.600 TS 45 998 0 10 280
1990267N13252 1990 92 EP MM ODILE 1990-09-24 15:00:00 TS 13.0574 -113.093 main 1112 1112 P_____________ EP191990 13.0574 -113.093 TS 50 996 0 10 276
1990267N13252 1990 92 EP MM ODILE 1990-09-24 18:00:00 TS 13.1000 -113.600 55 995 hurdat_epa main 1152 1152 O_____________ hurdat_epa EP191990 13.1000 -113.600 TS 55 995 0 10 275
1990267N13252 1990 92 EP MM ODILE 1990-09-24 21:00:00 TS 13.1424 -114.143 main 1178 1172 P_____________ EP191990 13.1424 -114.143 TS 55 994 0 11 275
1990267N13252 1990 92 EP MM ODILE 1990-09-25 00:00:00 TS 13.2000 -114.700 55 994 hurdat_epa main 1193 1193 O_____________ hurdat_epa EP191990 13.2000 -114.700 TS 55 994 0 11 278
1990267N13252 1990 92 EP MM ODILE 1990-09-25 03:00:00 TS 13.2923 -115.243 main 1206 1206 P_____________ EP191990 13.2923 -115.243 TS 57 991 0 11 281
1990267N13252 1990 92 EP MM ODILE 1990-09-25 06:00:00 TS 13.4000 -115.800 60 988 hurdat_epa main 1226 1226 O_____________ hurdat_epa EP191990 13.4000 -115.800 TS 60 988 0 11 280
1990267N13252 1990 92 EP MM ODILE 1990-09-25 09:00:00 TS 13.4924 -116.385 main 1249 1249 P_____________ EP191990 13.4924 -116.385 TS 65 984 1 12 280
1990267N13252 1990 92 EP MM ODILE 1990-09-25 12:00:00 TS 13.6000 -117.000 70 980 hurdat_epa main 1275 1275 O_____________ hurdat_epa EP191990 13.6000 -117.000 HU 70 980 1 12 281
1990267N13252 1990 92 EP MM ODILE 1990-09-25 15:00:00 TS 13.7349 -117.643 main 1304 1301 P_____________ EP191990 13.7349 -117.643 HU 77 976 1 13 283
1990267N13252 1990 92 EP MM ODILE 1990-09-25 18:00:00 TS 13.9000 -118.300 85 972 hurdat_epa main 1333 1333 O_____________ hurdat_epa EP191990 13.9000 -118.300 HU 85 972 2 13 286
1990267N13252 1990 92 EP MM ODILE 1990-09-25 21:00:00 TS 14.0923 -118.950 main 1366 1366 P_____________ EP191990 14.0923 -118.950 HU 90 968 2 13 288
1990267N13252 1990 92 EP MM ODILE 1990-09-26 00:00:00 TS 14.3000 -119.600 95 965 hurdat_epa main 1395 1395 O_____________ hurdat_epa EP191990 14.3000 -119.600 HU 95 965 2 13 288
1990267N13252 1990 92 EP MM ODILE 1990-09-26 03:00:00 TS 14.4924 -120.258 main 1427 1427 P_____________ EP191990 14.4924 -120.258 HU 102 959 3 13 288
1990267N13252 1990 92 EP MM ODILE 1990-09-26 06:00:00 TS 14.7000 -120.900 110 953 hurdat_epa main 1447 1445 O_____________ hurdat_epa EP191990 14.7000 -120.900 HU 110 953 3 13 291
1990267N13252 1990 92 EP MM ODILE 1990-09-26 09:00:00 TS 14.9422 -121.500 main 1471 1462 P_____________ EP191990 14.9422 -121.500 HU 117 944 4 13 293
1990267N13252 1990 92 EP MM ODILE 1990-09-26 12:00:00 TS 15.2000 -122.100 125 935 hurdat_epa main 1489 1488 O_____________ hurdat_epa EP191990 15.2000 -122.100 HU 125 935 4 13 292
1990267N13252 1990 92 EP MM ODILE 1990-09-26 15:00:00 TS 15.4425 -122.758 main 1525 1517 P_____________ EP191990 15.4425 -122.758 HU 125 935 4 14 292
1990267N13252 1990 92 EP MM ODILE 1990-09-26 18:00:00 TS 15.7000 -123.400 125 935 hurdat_epa main 1547 1547 O_____________ hurdat_epa EP191990 15.7000 -123.400 HU 125 935 4 13 295
1990267N13252 1990 92 EP MM ODILE 1990-09-26 21:00:00 TS 15.9847 -123.965 main 1573 1573 P_____________ EP191990 15.9847 -123.965 HU 125 935 4 12 300
1990267N13252 1990 92 EP MM ODILE 1990-09-27 00:00:00 TS 16.3000 -124.500 125 935 hurdat_epa main 1593 1593 O_____________ hurdat_epa EP191990 16.3000 -124.500 HU 125 935 4 12 302
1990267N13252 1990 92 EP MM ODILE 1990-09-27 03:00:00 TS 16.6424 -125.058 main 1617 1606 P_____________ EP191990 16.6424 -125.058 HU 125 935 4 13 304
1990267N13252 1990 92 EP MM ODILE 1990-09-27 06:00:00 TS 17.0000 -125.600 125 935 hurdat_epa main 1616 1613 O_____________ hurdat_epa EP191990 17.0000 -125.600 HU 125 935 4 13 305
1990267N13252 1990 92 EP MM ODILE 1990-09-27 09:00:00 TS 17.3575 -126.138 main 1618 1618 P_____________ EP191990 17.3575 -126.138 HU 125 935 4 12 306
1990267N13252 1990 92 EP MM ODILE 1990-09-27 12:00:00 TS 17.7000 -126.600 125 935 hurdat_epa main 1630 1629 O_____________ hurdat_epa EP191990 17.7000 -126.600 HU 125 935 4 10 311
1990267N13252 1990 92 EP MM ODILE 1990-09-27 15:00:00 TS 18.0073 -126.930 main 1629 1629 P_____________ EP191990 18.0073 -126.930 HU 120 940 4 8 316
1990267N13252 1990 92 EP MM ODILE 1990-09-27 18:00:00 TS 18.3000 -127.200 115 946 hurdat_epa main 1629 1629 O_____________ hurdat_epa EP191990 18.3000 -127.200 HU 115 946 4 8 317
1990267N13252 1990 92 EP MM ODILE 1990-09-27 21:00:00 TS 18.6000 -127.515 main 1630 1630 P_____________ EP191990 18.6000 -127.515 HU 107 953 3 8 317
1990267N13252 1990 92 EP MM ODILE 1990-09-28 00:00:00 TS 18.9000 -127.800 100 960 hurdat_epa main 1633 1627 O_____________ hurdat_epa EP191990 18.9000 -127.800 HU 100 960 3 8 322
1990267N13252 1990 92 EP MM ODILE 1990-09-28 03:00:00 TS 19.1999 -128.015 main 1628 1623 P_____________ EP191990 19.1999 -128.015 HU 97 961 3 7 328
1990267N13252 1990 92 EP MM ODILE 1990-09-28 06:00:00 TS 19.5000 -128.200 95 963 hurdat_epa main 1625 1618 O_____________ hurdat_epa EP191990 19.5000 -128.200 HU 95 963 2 7 328
1990267N13252 1990 92 EP MM ODILE 1990-09-28 09:00:00 TS 19.8075 -128.422 main 1622 1617 P_____________ EP191990 19.8075 -128.422 HU 92 966 2 7 328
1990267N13252 1990 92 EP MM ODILE 1990-09-28 12:00:00 TS 20.1000 -128.600 90 970 hurdat_epa main 1620 1610 O_____________ hurdat_epa EP191990 20.1000 -128.600 HU 90 970 2 6 337
1990267N13252 1990 92 EP MM ODILE 1990-09-28 15:00:00 TS 20.3650 -128.680 main 1610 1598 P_____________ EP191990 20.3650 -128.680 HU 82 975 1 5 349
1990267N13252 1990 92 EP MM ODILE 1990-09-28 18:00:00 TS 20.6000 -128.700 75 980 hurdat_epa main 1598 1586 O_____________ hurdat_epa EP191990 20.6000 -128.700 HU 75 980 1 5 357
1990267N13252 1990 92 EP MM ODILE 1990-09-28 21:00:00 TS 20.8225 -128.708 main 1586 1574 P_____________ EP191990 20.8225 -128.708 HU 70 984 1 4 0
1990267N13252 1990 92 EP MM ODILE 1990-09-29 00:00:00 TS 21.0000 -128.700 65 988 hurdat_epa main 1574 1568 O_____________ hurdat_epa EP191990 21.0000 -128.700 HU 65 988 1 3 0
1990267N13252 1990 92 EP MM ODILE 1990-09-29 03:00:00 TS 21.1225 -128.693 main 1568 1563 P_____________ EP191990 21.1225 -128.693 HU 60 991 0 2 8
1990267N13252 1990 92 EP MM ODILE 1990-09-29 06:00:00 TS 21.2000 -128.700 55 994 hurdat_epa main 1563 1557 O_____________ hurdat_epa EP191990 21.2000 -128.700 TS 55 994 0 2 348
1990267N13252 1990 92 EP MM ODILE 1990-09-29 09:00:00 TS 21.2725 -128.735 main 1557 1557 P_____________ EP191990 21.2725 -128.735 TS 52 996 0 1 317
1990267N13252 1990 92 EP MM ODILE 1990-09-29 12:00:00 TS 21.3000 -128.800 50 998 hurdat_epa main 1566 1566 O_____________ hurdat_epa EP191990 21.3000 -128.800 TS 50 998 0 1 273
1990267N13252 1990 92 EP MM ODILE 1990-09-29 15:00:00 TS 21.2800 -128.885 main 1575 1575 P_____________ EP191990 21.2800 -128.885 TS 47 1000 0 2 241
1990267N13252 1990 92 EP MM ODILE 1990-09-29 18:00:00 TS 21.2000 -129.000 45 1002 hurdat_epa main 1589 1589 O_____________ hurdat_epa EP191990 21.2000 -129.000 TS 45 1002 0 3 229
1990267N13252 1990 92 EP MM ODILE 1990-09-29 21:00:00 TS 21.0725 -129.143 main 1604 1604 P_____________ EP191990 21.0725 -129.143 TS 40 1004 0 4 223
1990267N13252 1990 92 EP MM ODILE 1990-09-30 00:00:00 TS 20.9000 -129.300 35 1006 hurdat_epa main 1633 1633 O_____________ hurdat_epa EP191990 20.9000 -129.300 TS 35 1006 0 5 219
1990267N13252 1990 92 EP MM ODILE 1990-09-30 03:00:00 TS 20.7225 -129.442 main 1654 1654 P_____________ EP191990 20.7225 -129.442 TS 32 1007 -1 5 215
1990267N13252 1990 92 EP MM ODILE 1990-09-30 06:00:00 TS 20.5000 -129.600 30 1008 hurdat_epa main 1683 1683 O_____________ hurdat_epa EP191990 20.5000 -129.600 TD 30 1008 -1 6 212
1990267N13252 1990 92 EP MM ODILE 1990-09-30 09:00:00 TS 20.2000 -129.785 main 1718 1718 P_____________ EP191990 20.2000 -129.785 TD 30 1009 -1 7 212
1990267N13252 1990 92 EP MM ODILE 1990-09-30 12:00:00 TS 19.9000 -130.000 30 1010 hurdat_epa main 1754 1754 O_____________ hurdat_epa EP191990 19.9000 -130.000 TD 30 1010 -1 7 219
1990267N13252 1990 92 EP MM ODILE 1990-09-30 15:00:00 TS 19.6775 -130.235 main 1784 1784 P_____________ EP191990 19.6775 -130.235 TD 27 1010 -1 6 230
1990267N13252 1990 92 EP MM ODILE 1990-09-30 18:00:00 TS 19.5000 -130.500 25 1011 hurdat_epa main 1822 1822 O_____________ hurdat_epa EP191990 19.5000 -130.500 TD 25 1011 -1 6 237
1990267N13252 1990 92 EP MM ODILE 1990-09-30 21:00:00 TS 19.3424 -130.785 main 1861 1861 P_____________ EP191990 19.3424 -130.785 TD 25 1011 -1 6 242
1990267N13252 1990 92 EP MM ODILE 1990-10-01 00:00:00 TS 19.2000 -131.100 25 1012 hurdat_epa main 1893 1893 O_____________ hurdat_epa EP191990 19.2000 -131.100 TD 25 1012 -1 7 245
1990267N13252 1990 92 EP MM ODILE 1990-10-01 03:00:00 TS 19.0574 -131.427 main 1926 1926 P_____________ EP191990 19.0574 -131.427 TD 25 1012 -1 7 246
1990267N13252 1990 92 EP MM ODILE 1990-10-01 06:00:00 TS 18.9000 -131.800 25 1012 hurdat_epa main 1973 1973 O_____________ hurdat_epa EP191990 18.9000 -131.800 TD 25 1012 -1 8 245
1990267N13252 1990 92 EP MM ODILE 1990-10-01 09:00:00 TS 18.7000 -132.235 main 2021 2021 P_____________ EP191990 18.7000 -132.235 TD 25 1012 -1 9 245
1990267N13252 1990 92 EP MM ODILE 1990-10-01 12:00:00 TS 18.5000 -132.700 25 1012 hurdat_epa main 2077 2077 O_____________ hurdat_epa EP191990 18.5000 -132.700 TD 25 1012 -1 9 247
1990267N13252 1990 92 EP MM ODILE 1990-10-01 15:00:00 TS 18.3423 -133.142 main 2125 2125 P_____________ EP191990 18.3423 -133.142 TD 22 1012 -1 9 251
1990267N13252 1990 92 EP MM ODILE 1990-10-01 18:00:00 TS 18.2000 -133.600 20 1012 hurdat_epa main 2175 2175 O_____________ hurdat_epa EP191990 18.2000 -133.600 TD 20 1012 -1 9 252
1990267N13252 1990 92 EP MM ODILE 1990-10-01 21:00:00 TS 18.0528 -134.090 main 2183 2133 P_____________ EP191990 18.0528 -134.090 TD 20 1012 -1 10 252
1990267N13252 1990 92 EP MM ODILE 1990-10-02 00:00:00 TS 17.9000 -134.600 20 1012 hurdat_epa main 2133 O_____________ hurdat_epa EP191990 17.9000 -134.600 TD 20 1012 -1 10 253

IBTrACS Databaseについて

本データベースは、米国NOAAが公開する1842年以降の世界の熱帯低気圧のベストトラックデータアーカイブInternational Best Track Archive for Climate Stewardship (IBTrACS)を、ウェブで閲覧しやすい形式に変換したものです。

最終更新日:2021-11-26